createdAt,value
2018-07-23T00:04:15.834Z,81.800003
2018-07-23T00:09:18.148Z,82.5
2018-07-23T00:14:20.640Z,83.099998
2018-07-23T00:19:22.750Z,83.5
2018-07-23T00:24:25.019Z,83.699997
2018-07-23T00:29:27.533Z,84.599998
2018-07-23T00:34:29.780Z,83.900002
2018-07-23T00:39:31.900Z,83.199997
2018-07-23T00:44:34.130Z,82.199997
2018-07-23T00:49:36.468Z,84
2018-07-23T00:54:38.828Z,83.800003
2018-07-23T00:59:41.197Z,84.300003
2018-07-23T01:04:43.364Z,84.5
2018-07-23T01:09:45.657Z,84.300003
2018-07-23T01:14:47.890Z,83.699997
2018-07-23T01:19:50.317Z,83.699997
2018-07-23T01:24:52.527Z,84.199997
2018-07-23T01:29:54.754Z,84.300003
2018-07-23T01:34:57.296Z,84
2018-07-23T01:39:59.500Z,84.800003
2018-07-23T01:45:01.750Z,84.900002
2018-07-23T01:50:03.990Z,83.699997
2018-07-23T01:55:06.318Z,84.900002
2018-07-23T02:00:08.734Z,84.900002
2018-07-23T02:05:10.897Z,85.199997
2018-07-23T02:10:13.204Z,85
2018-07-23T02:15:15.530Z,85.5
2018-07-23T02:20:17.850Z,85.699997
2018-07-23T02:25:20.046Z,86.099998
2018-07-23T02:30:22.417Z,86.599998
2018-07-23T02:35:24.693Z,85.5
2018-07-23T02:40:26.974Z,86.599998
2018-07-23T02:45:29.324Z,86.300003
2018-07-23T02:50:31.568Z,82.099998
2018-07-23T02:55:33.833Z,84
2018-07-23T03:00:36.202Z,82.900002
2018-07-23T03:05:38.363Z,84.099998
2018-07-23T03:10:40.701Z,83.5
2018-07-23T03:15:43.011Z,82.199997
2018-07-23T03:20:45.220Z,83.099998
2018-07-23T03:25:47.653Z,83.099998
2018-07-23T03:30:49.875Z,81.300003
2018-07-23T03:35:52.207Z,84.800003
2018-07-23T03:40:54.523Z,84.5
2018-07-23T03:45:56.898Z,79.5
2018-07-23T03:50:59.037Z,82.199997
2018-07-23T03:56:01.422Z,83
2018-07-23T04:01:03.673Z,80.199997
2018-07-23T04:06:05.878Z,79.400002
2018-07-23T04:11:08.405Z,78.699997
2018-07-23T04:16:10.664Z,78.400002
2018-07-23T04:21:12.794Z,78.5
2018-07-23T04:26:15.170Z,78.400002
2018-07-23T04:31:17.377Z,79.099998
2018-07-23T04:36:19.820Z,77
2018-07-23T04:41:22.058Z,75.099998
2018-07-23T04:46:24.364Z,73.099998
2018-07-23T04:51:26.668Z,71.699997
2018-07-23T04:56:28.925Z,71.599998
2018-07-23T05:01:31.286Z,70.300003
2018-07-23T05:06:33.440Z,69.099998
2018-07-23T05:11:35.823Z,68.800003
2018-07-23T05:16:38.172Z,67.900002
2018-07-23T05:21:40.412Z,67.199997
2018-07-23T05:26:42.694Z,67
2018-07-23T05:31:45.079Z,66.099998
2018-07-23T05:36:47.240Z,64.699997
2018-07-23T05:41:49.554Z,64.400002
2018-07-23T05:46:51.865Z,64.099998
2018-07-23T05:51:54.174Z,63
2018-07-23T05:56:56.377Z,62.700001
2018-07-23T06:01:58.757Z,62
2018-07-23T06:07:01.191Z,62.299999
2018-07-23T06:12:03.344Z,61.200001
2018-07-23T06:17:05.576Z,61.200001
2018-07-23T06:22:08.075Z,61.099998
2018-07-23T06:27:10.273Z,60.5
2018-07-23T06:32:12.486Z,59.5
2018-07-23T06:37:14.860Z,58.900002
2018-07-23T06:42:17.084Z,58.400002
2018-07-23T06:47:19.419Z,59
2018-07-23T06:52:21.686Z,58.400002
2018-07-23T06:57:23.995Z,55.5
2018-07-23T07:02:26.272Z,55.400002
2018-07-23T07:07:28.543Z,54.5
2018-07-23T07:12:30.806Z,55.5
2018-07-23T07:17:33.311Z,54.700001
2018-07-23T07:22:35.438Z,53.700001
2018-07-23T07:27:37.730Z,53.200001
2018-07-23T07:32:40.030Z,50.799999
2018-07-23T07:37:42.289Z,51.5
2018-07-23T07:42:44.657Z,51.5
2018-07-23T07:47:46.948Z,49.700001
2018-07-23T07:52:49.214Z,48
2018-07-23T07:57:51.516Z,46.700001
2018-07-23T08:02:53.809Z,46.299999
2018-07-23T08:07:56.132Z,45.799999
2018-07-23T08:12:58.316Z,47.200001
2018-07-23T08:18:00.607Z,44.200001
2018-07-23T08:23:02.897Z,43.400002
2018-07-23T08:28:05.254Z,43.200001
2018-07-23T08:33:07.563Z,42.5
2018-07-23T08:38:09.861Z,40.900002
2018-07-23T08:43:12.153Z,41.5
2018-07-23T08:48:14.440Z,39.799999
2018-07-23T08:53:16.695Z,38.299999
2018-07-23T08:58:19.047Z,39.900002
2018-07-23T09:03:21.321Z,38.099998
2018-07-23T09:08:23.735Z,40
2018-07-23T09:13:25.931Z,36
2018-07-23T09:18:28.187Z,36.099998
2018-07-23T09:23:30.513Z,38.299999
2018-07-23T09:28:32.976Z,34.700001
2018-07-23T09:33:35.105Z,34.900002
2018-07-23T09:38:37.452Z,35
2018-07-23T09:43:39.685Z,35.599998
2018-07-23T09:48:42.127Z,32.700001
2018-07-23T09:53:44.255Z,34.299999
2018-07-23T09:58:46.624Z,32.200001
2018-07-23T10:03:48.884Z,31.200001
2018-07-23T10:08:51.214Z,31.200001
2018-07-23T10:13:53.638Z,30
2018-07-23T10:18:55.713Z,31.1
2018-07-23T10:23:58.030Z,32.5
2018-07-23T10:29:00.351Z,30.799999
2018-07-23T10:34:02.701Z,34.200001
2018-07-23T10:39:04.949Z,31.299999
2018-07-23T10:44:07.214Z,32
2018-07-23T10:49:09.563Z,34.299999
2018-07-23T10:54:11.839Z,28.700001
2018-07-23T10:59:14.024Z,28.700001
2018-07-23T11:04:16.404Z,30
2018-07-23T11:09:18.776Z,29.700001
2018-07-23T11:14:20.912Z,30.200001
2018-07-23T11:19:23.509Z,32.900002
2018-07-23T11:24:25.511Z,32.400002
2018-07-23T11:29:27.870Z,30.700001
2018-07-23T11:34:30.128Z,29.700001
2018-07-23T11:39:32.522Z,32.400002
2018-07-23T11:44:34.798Z,31.9
2018-07-23T11:49:36.969Z,30.299999
2018-07-23T11:54:39.325Z,31.9
2018-07-23T11:59:41.653Z,33.900002
2018-07-23T12:04:44.027Z,33.099998
2018-07-23T12:09:46.316Z,33.200001
2018-07-23T12:14:48.601Z,29.700001
2018-07-23T12:19:50.809Z,29.700001
2018-07-23T12:24:53.139Z,26.700001
2018-07-23T12:29:55.454Z,27.9
2018-07-23T12:34:57.752Z,29.799999
2018-07-23T12:40:00.016Z,28
2018-07-23T12:45:02.419Z,30.6
2018-07-23T12:50:04.717Z,30
2018-07-23T12:55:06.881Z,30.700001
2018-07-23T13:00:09.133Z,33.200001
2018-07-23T13:05:11.490Z,35.599998
2018-07-23T13:10:13.777Z,38
2018-07-23T13:15:15.995Z,35.799999
2018-07-23T13:20:18.525Z,34.900002
2018-07-23T13:25:20.637Z,34.599998
2018-07-23T13:30:22.988Z,39.099998
2018-07-23T13:35:25.249Z,33.400002
2018-07-23T13:40:27.541Z,30.700001
2018-07-23T13:45:29.920Z,35.700001
2018-07-23T13:50:32.142Z,37
2018-07-23T13:55:34.450Z,39.200001
2018-07-23T14:00:36.698Z,41.5
2018-07-23T14:05:38.952Z,37
2018-07-23T14:10:41.358Z,38.900002
2018-07-23T14:15:43.523Z,41.200001
2018-07-23T14:20:45.789Z,40.700001
2018-07-23T14:25:48.208Z,39.599998
2018-07-23T14:30:50.505Z,39.099998
2018-07-23T14:35:52.750Z,39.5
2018-07-23T14:40:55.060Z,41.200001
2018-07-23T14:45:57.403Z,43.299999
2018-07-23T14:50:59.678Z,41.5
2018-07-23T14:56:01.949Z,39.400002
2018-07-23T15:01:04.237Z,37.599998
2018-07-23T15:06:06.629Z,39.099998
2018-07-23T15:11:08.829Z,36.5
2018-07-23T15:16:11.230Z,35.599998
2018-07-23T15:21:13.354Z,33.700001
2018-07-23T15:26:16.731Z,35.200001
2018-07-23T15:31:18.019Z,34.700001
2018-07-23T15:36:20.251Z,35.400002
2018-07-23T15:41:22.663Z,35.099998
2018-07-23T15:46:24.948Z,35.599998
2018-07-23T15:51:27.408Z,37.5
2018-07-23T15:56:29.591Z,38.599998
2018-07-23T16:01:31.820Z,39.099998
2018-07-23T16:06:34.070Z,37
2018-07-23T16:11:36.556Z,36.299999
2018-07-23T16:16:38.695Z,35.700001
2018-07-23T16:21:41.927Z,32.599998
2018-07-23T16:26:43.797Z,33.900002
2018-07-23T16:31:45.548Z,36.099998
2018-07-23T16:36:47.938Z,38.799999
2018-07-23T16:41:50.043Z,38.299999
2018-07-23T16:46:52.444Z,36.700001
2018-07-23T16:51:54.814Z,36.799999
2018-07-23T16:56:57.068Z,36.599998
2018-07-23T17:01:59.294Z,40
2018-07-23T17:07:01.626Z,37.5
2018-07-23T17:12:03.928Z,37.5
2018-07-23T17:17:06.244Z,37.900002
2018-07-23T17:22:08.721Z,39
2018-07-23T17:27:10.848Z,38.099998
2018-07-23T17:32:13.042Z,39.799999
2018-07-23T17:37:15.394Z,41.299999
2018-07-23T17:42:17.662Z,41.400002
2018-07-23T17:47:19.974Z,40.5
2018-07-23T17:52:22.242Z,39.900002
2018-07-23T17:57:24.491Z,40.400002
2018-07-23T18:02:26.986Z,42
2018-07-23T18:07:29.135Z,43.799999
2018-07-23T18:12:31.377Z,40.700001
2018-07-23T18:17:33.776Z,43
2018-07-23T18:22:35.932Z,42.299999
2018-07-23T18:27:38.449Z,42.900002
2018-07-23T18:32:40.649Z,48.5
2018-07-23T18:37:43.004Z,50.599998
2018-07-23T18:42:45.195Z,49.299999
2018-07-23T18:47:47.511Z,50.799999
2018-07-23T18:52:49.898Z,52
2018-07-23T18:57:52.063Z,52.299999
2018-07-23T19:02:54.355Z,52.400002
2018-07-23T19:07:56.731Z,54.400002
2018-07-23T19:12:58.940Z,55.700001
2018-07-23T19:18:01.237Z,55.799999
2018-07-23T19:23:03.596Z,57.299999
2018-07-23T19:28:05.857Z,57.700001
2018-07-23T19:33:08.181Z,59.599998
2018-07-23T19:38:10.457Z,61.200001
2018-07-23T19:43:12.681Z,60.5
2018-07-23T19:48:15.083Z,60.799999
2018-07-23T19:53:17.332Z,61.299999
2018-07-23T19:58:19.542Z,62.700001
2018-07-23T20:03:21.986Z,64.099998
2018-07-23T20:08:24.175Z,64.900002
2018-07-23T20:13:26.488Z,66
2018-07-23T20:18:28.827Z,66.900002
2018-07-23T20:23:31.071Z,67.699997
2018-07-23T20:28:33.507Z,68.599998
2018-07-23T20:33:35.654Z,69.300003
2018-07-23T20:38:37.977Z,69.800003
2018-07-23T20:43:40.326Z,69.599998
2018-07-23T20:48:42.664Z,70.400002
2018-07-23T20:53:44.931Z,70.800003
2018-07-23T20:58:47.144Z,71.300003
2018-07-23T21:03:49.787Z,72.300003
2018-07-23T21:08:51.791Z,72.599998
2018-07-23T21:13:54.067Z,73.199997
2018-07-23T21:18:56.323Z,73.699997
2018-07-23T21:23:58.612Z,74.400002
2018-07-23T21:29:00.854Z,74.800003
2018-07-23T21:34:03.203Z,75.199997
2018-07-23T21:39:05.553Z,75.699997
2018-07-23T21:44:07.820Z,76.099998
2018-07-23T21:49:10.068Z,76.5
2018-07-23T21:54:12.400Z,76.699997
2018-07-23T21:59:14.786Z,77.099998
2018-07-23T22:04:16.957Z,77.599998
2018-07-23T22:09:19.263Z,78
2018-07-23T22:14:21.628Z,78.5
2018-07-23T22:19:23.911Z,79.199997
2018-07-23T22:24:26.162Z,79.599998
2018-07-23T22:29:28.483Z,79.5
2018-07-23T22:34:30.685Z,79.699997
2018-07-23T22:39:33.029Z,79.800003
2018-07-23T22:44:35.351Z,80.099998
2018-07-23T22:49:37.607Z,80.300003
2018-07-23T22:54:39.869Z,80.800003
2018-07-23T22:59:42.247Z,80.800003
2018-07-23T23:04:44.623Z,81.099998
2018-07-23T23:09:46.742Z,81.699997
2018-07-23T23:14:49.082Z,82.199997
2018-07-23T23:19:51.463Z,82.400002
2018-07-23T23:24:53.649Z,82.300003
2018-07-23T23:29:55.990Z,82.5
2018-07-23T23:34:58.326Z,82.800003
2018-07-23T23:40:00.663Z,83.099998
2018-07-23T23:45:03.093Z,83.099998
2018-07-23T23:50:05.192Z,83.099998
2018-07-23T23:55:07.496Z,83.300003
